ADDS METAR Data INFO
IDs: Format: Raw Decoded Include TAF

Data at: 0211 UTC 19 Jul 2018

KRYW 190155Z AUTO 14004KT 10SM CLR 32/17 A2993 RMK AO2 T03230165
KRYW 190135Z AUTO 14005KT 10SM CLR 33/16 A2993 RMK AO2 T03260162
KRYW 190115Z AUTO 14004KT 10SM CLR 33/15 A2992 RMK AO2 T03310150
KRYW 190055Z AUTO 14004KT 10SM CLR 34/14 A2992 RMK AO2 T03390137
KRYW 190035Z AUTO 14004KT 10SM CLR 35/13 A2992 RMK AO2 T03490129
KRYW 190015Z AUTO 15006KT 10SM CLR 36/12 A2992 RMK AO2 T03610118
KRYW 182355Z AUTO 14005KT 10SM CLR 37/12 A2992 RMK AO2 T03670115 10390 20352
KRYW 182335Z AUTO 13007KT 10SM CLR 37/12 A2992 RMK AO2 T03700121
KRYW 182315Z AUTO 14008KT 10SM CLR 37/14 A2992 RMK AO2 T03730136
KRYW 182255Z AUTO 14009KT 110V180 10SM CLR 38/14 A2993 RMK AO2 T03760142
KRYW 182235Z AUTO 13006KT 10SM CLR 38/15 A2993 RMK AO2 T03750147
KRYW 182215Z AUTO 12008KT 100V160 10SM CLR 38/15 A2993 RMK AO2 T03780150
KRYW 182155Z AUTO 15007KT 10SM CLR 38/15 A2994 RMK AO2 T03810147
KRYW 182135Z AUTO 11009KT 10SM CLR 38/14 A2994 RMK AO2 T03840139
KRYW 182115Z AUTO 12007KT 10SM CLR 38/12 A2995 RMK AO2 T03830117
KRYW 182055Z AUTO 14003KT 10SM CLR 38/12 A2995 RMK AO2 T03840117
KRYW 182035Z AUTO 17006KT 10SM CLR 38/13 A2996 RMK AO2 T03840129
KRYW 182015Z AUTO 12005KT 10SM CLR 38/14 A2997 RMK AO2 T03780139
KRYW 181955Z AUTO 18004KT 10SM CLR 38/14 A2998 RMK AO2 T03810143
KRYW 181935Z AUTO 17005KT 10SM CLR 38/15 A2998 RMK AO2 T03760150
KRYW 181915Z AUTO 13005KT 10SM CLR 37/15 A2999 RMK AO2 T03730153
KRYW 181855Z AUTO 15004G08KT 10SM CLR 36/16 A3000 RMK AO2 T03630158
KRYW 181835Z AUTO 22006KT 10SM CLR 36/15 A3001 RMK AO2 T03640149
KRYW 181815Z AUTO 23003KT 10SM CLR 36/16 A3002 RMK AO2 T03580155
KRYW 181755Z AUTO 20006KT 10SM CLR 35/16 A3003 RMK AO2 T03520155 10353 20250
KRYW 181735Z AUTO 19007KT 10SM CLR 35/16 A3004 RMK AO2 T03500163
KRYW 181715Z AUTO 24006KT 10SM CLR 35/16 A3004 RMK AO2 T03460161
KRYW 181655Z AUTO 24009KT 10SM CLR 34/17 A3004 RMK AO2 T03380167
KRYW 181635Z AUTO 21007KT 10SM CLR 33/18 A3004 RMK AO2 T03340180
KRYW 181615Z AUTO 20007KT 10SM CLR 33/18 A3005 RMK AO2 T03260184
KRYW 181555Z AUTO 21007KT 10SM CLR 32/19 A3005 RMK AO2 T03210189
KRYW 181535Z AUTO 24008KT 10SM CLR 31/19 A3005 RMK AO2 T03110191
KRYW 181515Z AUTO 23008KT 10SM CLR 31/20 A3005 RMK AO2 T03060198
KRYW 181455Z AUTO 23008KT 10SM CLR 30/21 A3006 RMK AO2 T02960208
KRYW 181435Z AUTO 24007G14KT 10SM CLR 29/22 A3006 RMK AO2 T02860219
KRYW 181415Z AUTO 23006KT 10SM CLR 28/23 A3007 RMK AO2 T02790229
KRYW 181355Z AUTO 24006KT 10SM CLR 27/23 A3007 RMK AO2 T02700230
KRYW 181335Z AUTO 22007KT 10SM CLR 26/23 A3007 RMK AO2 T02640230
KRYW 181315Z AUTO 22005KT 10SM CLR 26/23 A3006 RMK AO2 T02580230
KRYW 181255Z AUTO 22004KT 10SM CLR 26/23 A3007 RMK AO2 T02550231
KRYW 181235Z AUTO 22004KT 10SM SCT011 25/23 A3007 RMK AO2 T02510231
KRYW 181215Z AUTO 22005KT 10SM BKN011 25/23 A3006 RMK AO2 T02500230
KRYW 181155Z AUTO 21005KT 10SM OVC011 25/23 A3006 RMK AO2 T02500231 10275 20248
KRYW 181135Z AUTO 20006KT 10SM OVC011 25/23 A3006 RMK AO2 T02500232
KRYW 181115Z AUTO 20006KT 10SM OVC011 25/23 A3005 RMK AO2 T02480232
KRYW 181055Z AUTO 21007KT 10SM OVC011 25/23 A3005 RMK AO2 T02480231
KRYW 181035Z AUTO 20007KT 10SM BKN011 25/23 A3005 RMK AO2 T02510231
KRYW 181015Z AUTO 21006KT 10SM CLR 25/23 A3005 RMK AO2 T02520230
KRYW 180955Z AUTO 20003KT 10SM CLR 25/23 A3005 RMK AO2 T02520230
KRYW 180935Z AUTO 20005KT 10SM CLR 26/23 A3005 RMK AO2 T02550230
KRYW 180915Z AUTO 20003KT 10SM CLR 26/23 A3006 RMK AO2 T02550230
KRYW 180855Z AUTO 19004KT 10SM CLR 26/23 A3005 RMK AO2 T02550230
KRYW 180835Z AUTO 19004KT 10SM CLR 25/23 A3005 RMK AO2 T02540232
KRYW 180815Z AUTO 19004KT 10SM CLR 26/23 A3006 RMK AO2 T02560233
KRYW 180755Z AUTO 19005KT 10SM CLR 26/24 A3006 RMK AO2 T02580235
KRYW 180735Z AUTO 20005KT 10SM CLR 26/24 A3005 RMK AO2 T02600235
KRYW 180715Z AUTO 19008KT 10SM CLR 26/23 A3004 RMK AO2 T02620233
KRYW 180655Z AUTO 19006KT 10SM CLR 27/23 A3004 RMK AO2 T02650232
KRYW 180635Z AUTO 19005KT 10SM CLR 27/23 A3004 RMK AO2 T02670230
KRYW 180615Z AUTO 19008G15KT 10SM CLR 27/23 A3004 RMK AO2 T02710226
KRYW 180555Z AUTO 17010G15KT 130V190 10SM CLR 28/22 A3004 RMK AO2 T02760222 10359 20276 403790232
KRYW 180535Z AUTO 16006G14KT 10SM CLR 28/22 A3004 RMK AO2 T02810215
KRYW 180515Z AUTO 17008G14KT 10SM CLR 29/21 A3004 RMK AO2 T02850210
KRYW 180455Z AUTO 16006KT 10SM CLR 29/20 A3004 RMK AO2 T02890201
KRYW 180435Z AUTO 16005KT 10SM CLR 29/20 A3004 RMK AO2 T02920195
KRYW 180415Z AUTO 16005KT 10SM CLR 30/19 A3004 RMK AO2 T02960191
KRYW 180355Z AUTO 17005KT 10SM CLR 30/19 A3003 RMK AO2 T03000185
KRYW 180335Z AUTO 18007KT 10SM CLR 30/18 A3003 RMK AO2 T03030175
KRYW 180315Z AUTO 17005KT 10SM CLR 31/17 A3003 RMK AO2 T03070170
KRYW 180255Z AUTO 17007KT 10SM CLR 31/17 A3002 RMK AO2 T03100170
KRYW 180235Z AUTO 17006KT 10SM CLR 31/17 A3003 RMK AO2 T03120170
KRYW 180215Z AUTO 17005KT 10SM CLR 32/17 A3003 RMK AO2 T03150171
KRYW 180155Z AUTO 16005KT 10SM CLR 32/17 A3002 RMK AO2 T03180172
KRYW 180135Z AUTO 15005KT 10SM CLR 32/17 A3002 RMK AO2 T03220172
KRYW 180115Z AUTO 15006KT 10SM CLR 33/17 A3001 RMK AO2 T03290166
KRYW 180055Z AUTO 15004KT 10SM CLR 34/16 A3001 RMK AO2 T03380155
KRYW 180035Z AUTO 15008KT 10SM CLR 35/16 A3000 RMK AO2 T03460155
KRYW 180015Z AUTO 17005KT 10SM CLR 35/14 A3000 RMK AO2 T03520144
KRYW 172355Z AUTO 14008KT 110V170 10SM CLR 36/14 A3000 RMK AO2 T03600136 10379 20341
KRYW 172335Z AUTO 14008KT 10SM CLR 36/14 A3000 RMK AO2 T03610138
KRYW 172315Z AUTO 14004KT 10SM CLR 36/14 A3001 RMK AO2 T03640142
KRYW 172255Z AUTO 14007KT 10SM CLR 37/15 A3001 RMK AO2 T03650149
KRYW 172235Z AUTO 13006KT 10SM CLR 37/16 A3002 RMK AO2 T03700158
KRYW 172215Z AUTO 13007KT 10SM CLR 37/16 A3002 RMK AO2 T03720160
KRYW 172155Z AUTO 13006KT 10SM CLR 37/16 A3002 RMK AO2 T03720158
KRYW 172135Z AUTO 13004KT 10SM CLR 38/16 A3002 RMK AO2 T03760156
KRYW 172115Z AUTO 12008KT 10SM CLR 38/15 A3004 RMK AO2 T03780149
KRYW 172055Z AUTO 14006KT 10SM CLR 37/13 A3004 RMK AO2 T03720125
KRYW 172035Z AUTO 14006KT 10SM CLR 37/13 A3005 RMK AO2 T03720125
KRYW 172015Z AUTO 13007KT 10SM CLR 37/13 A3006 RMK AO2 T03710128
KRYW 171955Z AUTO 00000KT 10SM CLR 37/13 A3007 RMK AO2 T03670134
KRYW 171935Z AUTO 20005KT 10SM CLR 37/14 A3008 RMK AO2 T03650143
KRYW 171915Z AUTO 18006KT 10SM CLR 35/15 A3008 RMK AO2 T03540148
KRYW 171855Z AUTO 22007KT 10SM CLR 36/15 A3009 RMK AO2 T03560154
KRYW 171835Z AUTO 00000KT 10SM CLR 35/15 A3009 RMK AO2 T03490153
KRYW 171815Z AUTO 18005KT 10SM CLR 35/16 A3010 RMK AO2 T03470160
KRYW 171755Z AUTO 16006KT 10SM CLR 34/16 A3011 RMK AO2 T03410155 10341 20232
KRYW 171735Z AUTO 27007KT 10SM CLR 34/17 A3011 RMK AO2 T03360166
KRYW 171715Z AUTO 23007KT 10SM CLR 33/18 A3011 RMK AO2 T03300176
KRYW 171655Z AUTO 24008KT 10SM CLR 32/18 A3012 RMK AO2 T03220176
KRYW 171635Z AUTO 22009KT 10SM CLR 31/18 A3012 RMK AO2 T03140184
KRYW 171615Z AUTO 23008KT 10SM CLR 31/19 A3012 RMK AO2 T03050191
KRYW 171555Z AUTO 22008KT 200V260 10SM CLR 30/20 A3012 RMK AO2 T02980197
KRYW 171535Z AUTO 20008KT 10SM CLR 29/20 A3013 RMK AO2 T02920200
KRYW 171515Z AUTO 24010KT 10SM CLR 28/21 A3013 RMK AO2 T02810207
KRYW 171455Z AUTO 22008KT 10SM CLR 27/21 A3013 RMK AO2 T02730210
KRYW 171435Z AUTO 23008G14KT 10SM CLR 27/22 A3013 RMK AO2 T02680217
KRYW 171415Z AUTO 23009G14KT 10SM SCT013 26/22 A3013 RMK AO2 T02600219